sensor_id;sensor_type;location;lat;lon;timestamp;temperature;humidity
39079;DHT22;24829;49.208;12.080;2023-05-10T00:01:46;14.00;99.90
39079;DHT22;24829;49.208;12.080;2023-05-10T00:04:11;13.90;99.90
39079;DHT22;24829;49.208;12.080;2023-05-10T00:06:37;13.90;99.90
39079;DHT22;24829;49.208;12.080;2023-05-10T00:09:02;14.00;99.90
39079;DHT22;24829;49.208;12.080;2023-05-10T00:11:28;14.00;99.90
39079;DHT22;24829;49.208;12.080;2023-05-10T00:13:54;14.00;99.90
39079;DHT22;24829;49.208;12.080;2023-05-10T00:16:19;13.90;99.90
39079;DHT22;24829;49.208;12.080;2023-05-10T00:18:45;13.90;99.90
39079;DHT22;24829;49.208;12.080;2023-05-10T00:21:11;13.90;99.90
39079;DHT22;24829;49.208;12.080;2023-05-10T00:23:36;13.80;99.90
39079;DHT22;24829;49.208;12.080;2023-05-10T00:26:02;13.70;99.90
39079;DHT22;24829;49.208;12.080;2023-05-10T00:28:28;13.70;99.90
39079;DHT22;24829;49.208;12.080;2023-05-10T00:30:54;13.70;99.90
39079;DHT22;24829;49.208;12.080;2023-05-10T00:33:20;13.70;99.90
39079;DHT22;24829;49.208;12.080;2023-05-10T00:35:46;13.70;99.90
39079;DHT22;24829;49.208;12.080;2023-05-10T00:38:12;13.70;99.90
39079;DHT22;24829;49.208;12.080;2023-05-10T00:40:37;13.70;99.90
39079;DHT22;24829;49.208;12.080;2023-05-10T00:43:03;13.70;99.90
39079;DHT22;24829;49.208;12.080;2023-05-10T00:45:30;13.80;99.90
39079;DHT22;24829;49.208;12.080;2023-05-10T00:47:56;13.70;99.90
39079;DHT22;24829;49.208;12.080;2023-05-10T00:50:22;13.70;99.90
39079;DHT22;24829;49.208;12.080;2023-05-10T00:52:48;13.70;99.90
39079;DHT22;24829;49.208;12.080;2023-05-10T00:55:14;13.70;99.90
39079;DHT22;24829;49.208;12.080;2023-05-10T00:57:40;13.70;99.90
39079;DHT22;24829;49.208;12.080;2023-05-10T01:00:06;13.80;99.90
39079;DHT22;24829;49.208;12.080;2023-05-10T01:02:34;13.80;99.90
39079;DHT22;24829;49.208;12.080;2023-05-10T01:05:00;13.90;99.90
39079;DHT22;24829;49.208;12.080;2023-05-10T01:07:26;13.90;99.90
39079;DHT22;24829;49.208;12.080;2023-05-10T01:09:52;13.90;99.90
39079;DHT22;24829;49.208;12.080;2023-05-10T01:12:18;13.90;99.90
39079;DHT22;24829;49.208;12.080;2023-05-10T01:14:43;13.80;99.90
39079;DHT22;24829;49.208;12.080;2023-05-10T01:17:10;13.90;99.90
39079;DHT22;24829;49.208;12.080;2023-05-10T01:19:36;13.80;99.90
39079;DHT22;24829;49.208;12.080;2023-05-10T01:25:02;13.80;99.90
39079;DHT22;24829;49.208;12.080;2023-05-10T01:27:58;13.80;99.90
39079;DHT22;24829;49.208;12.080;2023-05-10T01:33:27;13.80;99.90
39079;DHT22;24829;49.208;12.080;2023-05-10T01:36:05;13.80;99.90
39079;DHT22;24829;49.208;12.080;2023-05-10T01:38:51;13.70;99.90
39079;DHT22;24829;49.208;12.080;2023-05-10T01:41:47;13.80;99.90
39079;DHT22;24829;49.208;12.080;2023-05-10T01:46:41;13.90;99.90
39079;DHT22;24829;49.208;12.080;2023-05-10T01:49:37;13.90;99.90
39079;DHT22;24829;49.208;12.080;2023-05-10T01:52:14;14.00;99.90
39079;DHT22;24829;49.208;12.080;2023-05-10T01:54:44;14.00;99.90
39079;DHT22;24829;49.208;12.080;2023-05-10T01:57:15;14.00;99.90
39079;DHT22;24829;49.208;12.080;2023-05-10T01:59:43;14.00;99.90
39079;DHT22;24829;49.208;12.080;2023-05-10T02:02:11;14.00;99.90
39079;DHT22;24829;49.208;12.080;2023-05-10T02:04:38;14.00;99.90
39079;DHT22;24829;49.208;12.080;2023-05-10T02:07:05;14.00;99.90
39079;DHT22;24829;49.208;12.080;2023-05-10T02:09:33;14.00;99.90
39079;DHT22;24829;49.208;12.080;2023-05-10T02:12:01;14.00;99.90
39079;DHT22;24829;49.208;12.080;2023-05-10T02:14:30;14.00;99.90
39079;DHT22;24829;49.208;12.080;2023-05-10T02:16:58;14.00;99.90
39079;DHT22;24829;49.208;12.080;2023-05-10T02:19:25;14.00;99.90
39079;DHT22;24829;49.208;12.080;2023-05-10T02:21:51;14.00;99.90
39079;DHT22;24829;49.208;12.080;2023-05-10T02:24:18;14.00;99.90
39079;DHT22;24829;49.208;12.080;2023-05-10T02:26:45;14.00;99.90
39079;DHT22;24829;49.208;12.080;2023-05-10T02:29:12;13.90;99.90
39079;DHT22;24829;49.208;12.080;2023-05-10T02:31:40;13.90;99.90
39079;DHT22;24829;49.208;12.080;2023-05-10T02:34:10;13.90;99.90
39079;DHT22;24829;49.208;12.080;2023-05-10T02:36:38;13.80;99.90
39079;DHT22;24829;49.208;12.080;2023-05-10T02:39:05;13.80;99.90
39079;DHT22;24829;49.208;12.080;2023-05-10T02:41:35;13.80;99.90
39079;DHT22;24829;49.208;12.080;2023-05-10T02:44:02;13.90;99.90
39079;DHT22;24829;49.208;12.080;2023-05-10T02:46:29;13.80;99.90
39079;DHT22;24829;49.208;12.080;2023-05-10T02:48:55;13.90;99.90
39079;DHT22;24829;49.208;12.080;2023-05-10T02:51:24;13.90;99.90
39079;DHT22;24829;49.208;12.080;2023-05-10T02:53:53;13.80;99.90
39079;DHT22;24829;49.208;12.080;2023-05-10T02:56:25;13.80;99.90
39079;DHT22;24829;49.208;12.080;2023-05-10T02:58:52;13.80;99.90
39079;DHT22;24829;49.208;12.080;2023-05-10T03:01:18;13.70;99.90
39079;DHT22;24829;49.208;12.080;2023-05-10T03:03:43;13.70;99.90
39079;DHT22;24829;49.208;12.080;2023-05-10T03:06:09;13.60;99.90
39079;DHT22;24829;49.208;12.080;2023-05-10T03:08:35;13.60;99.90
39079;DHT22;24829;49.208;12.080;2023-05-10T03:16:45;13.50;99.90
39079;DHT22;24829;49.208;12.080;2023-05-10T03:19:27;13.40;99.90
39079;DHT22;24829;49.208;12.080;2023-05-10T03:21:59;13.40;99.90
39079;DHT22;24829;49.208;12.080;2023-05-10T03:24:27;13.40;99.90
39079;DHT22;24829;49.208;12.080;2023-05-10T03:26:56;13.30;99.90
39079;DHT22;24829;49.208;12.080;2023-05-10T03:29:25;13.40;99.90
39079;DHT22;24829;49.208;12.080;2023-05-10T03:31:51;13.30;99.90
39079;DHT22;24829;49.208;12.080;2023-05-10T03:34:22;13.40;99.90
39079;DHT22;24829;49.208;12.080;2023-05-10T03:36:48;13.40;99.90
39079;DHT22;24829;49.208;12.080;2023-05-10T03:39:13;13.40;99.90
39079;DHT22;24829;49.208;12.080;2023-05-10T03:41:39;13.30;99.90
39079;DHT22;24829;49.208;12.080;2023-05-10T03:44:05;13.40;99.90
39079;DHT22;24829;49.208;12.080;2023-05-10T03:46:30;13.30;99.90
39079;DHT22;24829;49.208;12.080;2023-05-10T03:48:56;13.20;99.90
39079;DHT22;24829;49.208;12.080;2023-05-10T03:51:21;13.20;99.90
39079;DHT22;24829;49.208;12.080;2023-05-10T03:53:47;13.20;99.90
39079;DHT22;24829;49.208;12.080;2023-05-10T03:56:13;13.10;99.90
39079;DHT22;24829;49.208;12.080;2023-05-10T03:58:38;13.10;99.90
39079;DHT22;24829;49.208;12.080;2023-05-10T04:01:04;13.10;99.90
39079;DHT22;24829;49.208;12.080;2023-05-10T04:03:29;13.10;99.90
39079;DHT22;24829;49.208;12.080;2023-05-10T04:05:59;13.10;99.90
39079;DHT22;24829;49.208;12.080;2023-05-10T04:08:26;13.10;99.90
39079;DHT22;24829;49.208;12.080;2023-05-10T04:10:51;13.00;99.90
39079;DHT22;24829;49.208;12.080;2023-05-10T04:13:17;12.90;99.90
39079;DHT22;24829;49.208;12.080;2023-05-10T04:15:42;12.90;99.90
39079;DHT22;24829;49.208;12.080;2023-05-10T04:18:09;12.90;99.90
39079;DHT22;24829;49.208;12.080;2023-05-10T04:20:35;12.80;99.90
39079;DHT22;24829;49.208;12.080;2023-05-10T04:23:01;12.80;99.90
39079;DHT22;24829;49.208;12.080;2023-05-10T04:25:27;12.80;99.90
39079;DHT22;24829;49.208;12.080;2023-05-10T04:27:52;12.80;99.90
39079;DHT22;24829;49.208;12.080;2023-05-10T04:30:18;12.70;99.90
39079;DHT22;24829;49.208;12.080;2023-05-10T04:32:44;12.70;99.90
39079;DHT22;24829;49.208;12.080;2023-05-10T04:35:09;12.60;99.90
39079;DHT22;24829;49.208;12.080;2023-05-10T04:37:35;12.50;99.90
39079;DHT22;24829;49.208;12.080;2023-05-10T04:40:02;12.40;99.90
39079;DHT22;24829;49.208;12.080;2023-05-10T04:42:28;12.30;99.90
39079;DHT22;24829;49.208;12.080;2023-05-10T04:44:54;12.20;99.90
39079;DHT22;24829;49.208;12.080;2023-05-10T04:47:20;12.20;99.90
39079;DHT22;24829;49.208;12.080;2023-05-10T04:49:45;12.20;99.90
39079;DHT22;24829;49.208;12.080;2023-05-10T04:52:11;12.20;99.90
39079;DHT22;24829;49.208;12.080;2023-05-10T04:54:36;12.30;99.90
39079;DHT22;24829;49.208;12.080;2023-05-10T04:57:02;12.30;99.90
39079;DHT22;24829;49.208;12.080;2023-05-10T04:59:28;12.40;99.90
39079;DHT22;24829;49.208;12.080;2023-05-10T05:01:53;12.40;99.90
39079;DHT22;24829;49.208;12.080;2023-05-10T05:04:19;12.50;99.90
39079;DHT22;24829;49.208;12.080;2023-05-10T05:06:44;12.50;99.90
39079;DHT22;24829;49.208;12.080;2023-05-10T05:09:10;12.50;99.90
39079;DHT22;24829;49.208;12.080;2023-05-10T05:11:35;12.50;99.90
39079;DHT22;24829;49.208;12.080;2023-05-10T05:14:01;12.40;99.90
39079;DHT22;24829;49.208;12.080;2023-05-10T05:16:27;12.40;99.90
39079;DHT22;24829;49.208;12.080;2023-05-10T05:18:52;12.40;99.90
39079;DHT22;24829;49.208;12.080;2023-05-10T05:21:19;12.30;99.90
39079;DHT22;24829;49.208;12.080;2023-05-10T05:23:45;12.30;99.90
39079;DHT22;24829;49.208;12.080;2023-05-10T05:26:10;12.30;99.90
39079;DHT22;24829;49.208;12.080;2023-05-10T05:28:36;12.30;99.90
39079;DHT22;24829;49.208;12.080;2023-05-10T05:31:08;12.40;99.90
39079;DHT22;24829;49.208;12.080;2023-05-10T05:33:34;12.40;99.90
39079;DHT22;24829;49.208;12.080;2023-05-10T05:36:04;12.50;99.90
39079;DHT22;24829;49.208;12.080;2023-05-10T05:38:30;12.50;99.90
39079;DHT22;24829;49.208;12.080;2023-05-10T05:40:56;12.50;99.90
39079;DHT22;24829;49.208;12.080;2023-05-10T05:43:22;12.50;99.90
39079;DHT22;24829;49.208;12.080;2023-05-10T05:45:47;12.50;99.90
39079;DHT22;24829;49.208;12.080;2023-05-10T05:48:13;12.50;99.90
39079;DHT22;24829;49.208;12.080;2023-05-10T05:50:38;12.40;99.90
39079;DHT22;24829;49.208;12.080;2023-05-10T05:53:04;12.40;99.90
39079;DHT22;24829;49.208;12.080;2023-05-10T05:55:29;12.40;99.90
39079;DHT22;24829;49.208;12.080;2023-05-10T05:57:57;12.40;99.90
39079;DHT22;24829;49.208;12.080;2023-05-10T06:00:22;12.40;99.90
39079;DHT22;24829;49.208;12.080;2023-05-10T06:02:48;12.40;99.90
39079;DHT22;24829;49.208;12.080;2023-05-10T06:05:14;12.50;99.90
39079;DHT22;24829;49.208;12.080;2023-05-10T06:07:39;12.40;99.90
39079;DHT22;24829;49.208;12.080;2023-05-10T06:10:08;12.50;99.90
39079;DHT22;24829;49.208;12.080;2023-05-10T06:12:33;12.50;99.90
39079;DHT22;24829;49.208;12.080;2023-05-10T06:14:59;12.50;99.90
39079;DHT22;24829;49.208;12.080;2023-05-10T06:17:24;12.50;99.90
39079;DHT22;24829;49.208;12.080;2023-05-10T06:19:50;12.60;99.90
39079;DHT22;24829;49.208;12.080;2023-05-10T06:22:16;12.60;99.90
39079;DHT22;24829;49.208;12.080;2023-05-10T06:24:41;12.70;99.90
39079;DHT22;24829;49.208;12.080;2023-05-10T06:27:07;12.80;99.90
39079;DHT22;24829;49.208;12.080;2023-05-10T06:29:32;12.80;99.90
39079;DHT22;24829;49.208;12.080;2023-05-10T06:31:58;12.80;99.90
39079;DHT22;24829;49.208;12.080;2023-05-10T06:34:24;12.80;99.90
39079;DHT22;24829;49.208;12.080;2023-05-10T06:36:49;12.80;99.90
39079;DHT22;24829;49.208;12.080;2023-05-10T06:39:15;12.80;99.90
39079;DHT22;24829;49.208;12.080;2023-05-10T06:41:41;12.80;99.90
39079;DHT22;24829;49.208;12.080;2023-05-10T06:44:07;12.80;99.90
39079;DHT22;24829;49.208;12.080;2023-05-10T06:46:32;12.80;99.90
39079;DHT22;24829;49.208;12.080;2023-05-10T06:48:58;12.80;99.90
39079;DHT22;24829;49.208;12.080;2023-05-10T06:51:23;12.80;99.90
39079;DHT22;24829;49.208;12.080;2023-05-10T06:53:49;12.80;99.90
39079;DHT22;24829;49.208;12.080;2023-05-10T06:56:14;12.80;99.90
39079;DHT22;24829;49.208;12.080;2023-05-10T06:58:40;12.80;99.90
39079;DHT22;24829;49.208;12.080;2023-05-10T07:01:05;12.80;99.90
39079;DHT22;24829;49.208;12.080;2023-05-10T07:03:31;12.80;99.90
39079;DHT22;24829;49.208;12.080;2023-05-10T07:06:01;12.80;99.90
39079;DHT22;24829;49.208;12.080;2023-05-10T07:08:29;12.90;99.90
39079;DHT22;24829;49.208;12.080;2023-05-10T07:11:02;13.00;99.90
39079;DHT22;24829;49.208;12.080;2023-05-10T07:13:29;13.00;99.90
39079;DHT22;24829;49.208;12.080;2023-05-10T07:15:55;13.00;99.90
39079;DHT22;24829;49.208;12.080;2023-05-10T07:18:20;13.10;99.90
39079;DHT22;24829;49.208;12.080;2023-05-10T07:20:46;13.10;99.90
39079;DHT22;24829;49.208;12.080;2023-05-10T07:23:12;13.10;99.90
39079;DHT22;24829;49.208;12.080;2023-05-10T07:25:37;13.20;99.90
39079;DHT22;24829;49.208;12.080;2023-05-10T07:28:03;13.30;99.90
39079;DHT22;24829;49.208;12.080;2023-05-10T07:30:29;13.40;99.90
39079;DHT22;24829;49.208;12.080;2023-05-10T07:32:54;13.40;99.90
39079;DHT22;24829;49.208;12.080;2023-05-10T07:35:20;13.40;99.90
39079;DHT22;24829;49.208;12.080;2023-05-10T07:37:46;13.50;99.90
39079;DHT22;24829;49.208;12.080;2023-05-10T07:40:11;13.50;99.90
39079;DHT22;24829;49.208;12.080;2023-05-10T07:42:37;13.60;99.90
39079;DHT22;24829;49.208;12.080;2023-05-10T07:45:03;13.60;99.90
39079;DHT22;24829;49.208;12.080;2023-05-10T07:47:29;13.70;99.90
39079;DHT22;24829;49.208;12.080;2023-05-10T07:49:54;13.70;99.90
39079;DHT22;24829;49.208;12.080;2023-05-10T07:52:20;13.80;99.90
39079;DHT22;24829;49.208;12.080;2023-05-10T07:54:46;13.90;99.90
39079;DHT22;24829;49.208;12.080;2023-05-10T07:57:11;14.00;99.90
39079;DHT22;24829;49.208;12.080;2023-05-10T07:59:39;14.10;99.90
39079;DHT22;24829;49.208;12.080;2023-05-10T08:02:06;14.20;99.90
39079;DHT22;24829;49.208;12.080;2023-05-10T08:04:31;14.20;99.90
39079;DHT22;24829;49.208;12.080;2023-05-10T08:06:57;14.30;99.90
39079;DHT22;24829;49.208;12.080;2023-05-10T08:09:22;14.40;99.90
39079;DHT22;24829;49.208;12.080;2023-05-10T08:11:49;14.50;99.90
39079;DHT22;24829;49.208;12.080;2023-05-10T08:14:16;14.40;99.90
39079;DHT22;24829;49.208;12.080;2023-05-10T08:16:41;14.50;99.90
39079;DHT22;24829;49.208;12.080;2023-05-10T08:19:07;14.50;99.90
39079;DHT22;24829;49.208;12.080;2023-05-10T08:21:33;14.50;99.90
39079;DHT22;24829;49.208;12.080;2023-05-10T08:23:58;14.60;99.90
39079;DHT22;24829;49.208;12.080;2023-05-10T08:26:24;14.50;99.90
39079;DHT22;24829;49.208;12.080;2023-05-10T08:28:49;14.50;99.90
39079;DHT22;24829;49.208;12.080;2023-05-10T08:31:15;14.50;99.90
39079;DHT22;24829;49.208;12.080;2023-05-10T08:33:41;14.50;99.90
39079;DHT22;24829;49.208;12.080;2023-05-10T08:36:06;14.40;99.90
39079;DHT22;24829;49.208;12.080;2023-05-10T08:38:32;14.40;99.90
39079;DHT22;24829;49.208;12.080;2023-05-10T08:40:58;14.30;99.90
39079;DHT22;24829;49.208;12.080;2023-05-10T08:43:28;14.50;99.90
39079;DHT22;24829;49.208;12.080;2023-05-10T08:46:00;14.50;99.90
39079;DHT22;24829;49.208;12.080;2023-05-10T08:48:29;14.60;99.90
39079;DHT22;24829;49.208;12.080;2023-05-10T08:50:58;14.60;99.90
39079;DHT22;24829;49.208;12.080;2023-05-10T08:53:26;14.60;99.90
39079;DHT22;24829;49.208;12.080;2023-05-10T08:55:52;14.70;99.90
39079;DHT22;24829;49.208;12.080;2023-05-10T08:58:19;14.70;99.90
39079;DHT22;24829;49.208;12.080;2023-05-10T09:00:45;14.80;99.90
39079;DHT22;24829;49.208;12.080;2023-05-10T09:03:11;14.90;99.90
39079;DHT22;24829;49.208;12.080;2023-05-10T09:05:37;15.00;99.90
39079;DHT22;24829;49.208;12.080;2023-05-10T09:08:03;15.00;99.90
39079;DHT22;24829;49.208;12.080;2023-05-10T09:10:29;15.10;99.90
39079;DHT22;24829;49.208;12.080;2023-05-10T09:12:59;15.20;99.90
39079;DHT22;24829;49.208;12.080;2023-05-10T09:15:24;15.30;99.90
39079;DHT22;24829;49.208;12.080;2023-05-10T09:17:50;15.50;99.90
39079;DHT22;24829;49.208;12.080;2023-05-10T09:20:16;15.50;99.90
39079;DHT22;24829;49.208;12.080;2023-05-10T09:22:43;15.60;99.90
39079;DHT22;24829;49.208;12.080;2023-05-10T09:25:13;15.70;99.90
39079;DHT22;24829;49.208;12.080;2023-05-10T09:27:45;15.80;99.90
39079;DHT22;24829;49.208;12.080;2023-05-10T09:30:24;15.80;99.90
39079;DHT22;24829;49.208;12.080;2023-05-10T09:32:51;15.70;99.90
39079;DHT22;24829;49.208;12.080;2023-05-10T09:35:22;15.60;99.90
39079;DHT22;24829;49.208;12.080;2023-05-10T09:37:50;15.50;99.90
39079;DHT22;24829;49.208;12.080;2023-05-10T09:40:21;15.40;99.90
39079;DHT22;24829;49.208;12.080;2023-05-10T09:42:57;15.40;99.90
39079;DHT22;24829;49.208;12.080;2023-05-10T09:45:24;15.40;99.90
39079;DHT22;24829;49.208;12.080;2023-05-10T09:47:50;15.40;99.90
39079;DHT22;24829;49.208;12.080;2023-05-10T09:50:16;15.50;99.90
39079;DHT22;24829;49.208;12.080;2023-05-10T09:55:21;15.50;99.90
39079;DHT22;24829;49.208;12.080;2023-05-10T09:57:47;15.50;99.90
39079;DHT22;24829;49.208;12.080;2023-05-10T10:00:20;15.50;99.90
39079;DHT22;24829;49.208;12.080;2023-05-10T10:02:56;15.50;99.90
39079;DHT22;24829;49.208;12.080;2023-05-10T10:05:33;15.50;99.90
39079;DHT22;24829;49.208;12.080;2023-05-10T10:08:03;15.50;99.90
39079;DHT22;24829;49.208;12.080;2023-05-10T10:10:31;15.60;99.90
39079;DHT22;24829;49.208;12.080;2023-05-10T10:12:57;15.60;99.90
39079;DHT22;24829;49.208;12.080;2023-05-10T10:15:23;15.70;99.90
39079;DHT22;24829;49.208;12.080;2023-05-10T10:17:49;15.70;99.90
39079;DHT22;24829;49.208;12.080;2023-05-10T10:20:16;15.70;99.90
39079;DHT22;24829;49.208;12.080;2023-05-10T10:22:42;15.80;99.90
39079;DHT22;24829;49.208;12.080;2023-05-10T10:25:12;15.90;99.90
39079;DHT22;24829;49.208;12.080;2023-05-10T10:28:10;16.10;99.90
39079;DHT22;24829;49.208;12.080;2023-05-10T10:30:43;16.30;99.90
39079;DHT22;24829;49.208;12.080;2023-05-10T10:33:44;16.40;99.90
39079;DHT22;24829;49.208;12.080;2023-05-10T10:36:15;16.50;99.90
39079;DHT22;24829;49.208;12.080;2023-05-10T10:41:39;17.00;99.90
39079;DHT22;24829;49.208;12.080;2023-05-10T10:44:26;17.20;99.90
39079;DHT22;24829;49.208;12.080;2023-05-10T10:47:20;17.30;99.90
39079;DHT22;24829;49.208;12.080;2023-05-10T10:50:04;17.50;99.90
39079;DHT22;24829;49.208;12.080;2023-05-10T10:52:38;17.50;99.90
39079;DHT22;24829;49.208;12.080;2023-05-10T10:55:13;17.60;99.90
39079;DHT22;24829;49.208;12.080;2023-05-10T10:57:51;17.70;99.90
39079;DHT22;24829;49.208;12.080;2023-05-10T11:00:37;17.80;99.90
39079;DHT22;24829;49.208;12.080;2023-05-10T11:03:12;17.90;99.90
39079;DHT22;24829;49.208;12.080;2023-05-10T11:05:48;18.00;99.90
39079;DHT22;24829;49.208;12.080;2023-05-10T11:08:27;18.00;99.90
39079;DHT22;24829;49.208;12.080;2023-05-10T11:13:31;18.00;99.90
39079;DHT22;24829;49.208;12.080;2023-05-10T11:15:58;18.00;99.90
39079;DHT22;24829;49.208;12.080;2023-05-10T11:18:29;18.10;99.90
39079;DHT22;24829;49.208;12.080;2023-05-10T11:21:00;18.30;99.90
39079;DHT22;24829;49.208;12.080;2023-05-10T11:26:08;18.50;99.90
39079;DHT22;24829;49.208;12.080;2023-05-10T11:28:42;18.30;99.90
39079;DHT22;24829;49.208;12.080;2023-05-10T11:31:07;18.10;99.90
39079;DHT22;24829;49.208;12.080;2023-05-10T11:33:45;18.00;99.90
39079;DHT22;24829;49.208;12.080;2023-05-10T11:36:14;17.80;99.90
39079;DHT22;24829;49.208;12.080;2023-05-10T11:38:39;17.50;99.90
39079;DHT22;24829;49.208;12.080;2023-05-10T11:41:05;17.30;99.90
39079;DHT22;24829;49.208;12.080;2023-05-10T11:43:30;17.00;99.90
39079;DHT22;24829;49.208;12.080;2023-05-10T11:45:56;16.80;99.90
39079;DHT22;24829;49.208;12.080;2023-05-10T11:48:22;16.80;99.90
39079;DHT22;24829;49.208;12.080;2023-05-10T11:50:49;16.70;99.90
39079;DHT22;24829;49.208;12.080;2023-05-10T11:53:15;16.70;99.90
39079;DHT22;24829;49.208;12.080;2023-05-10T11:55:40;16.60;99.90
39079;DHT22;24829;49.208;12.080;2023-05-10T11:58:06;16.50;99.90
39079;DHT22;24829;49.208;12.080;2023-05-10T12:00:32;16.40;99.90
39079;DHT22;24829;49.208;12.080;2023-05-10T12:02:57;15.90;99.90
39079;DHT22;24829;49.208;12.080;2023-05-10T12:05:23;15.50;99.90
39079;DHT22;24829;49.208;12.080;2023-05-10T12:07:49;15.20;99.90
39079;DHT22;24829;49.208;12.080;2023-05-10T12:10:15;15.00;99.90
39079;DHT22;24829;49.208;12.080;2023-05-10T12:12:43;14.80;99.90
39079;DHT22;24829;49.208;12.080;2023-05-10T12:17:46;14.50;99.90
39079;DHT22;24829;49.208;12.080;2023-05-10T12:20:20;14.50;99.90
39079;DHT22;24829;49.208;12.080;2023-05-10T12:22:57;14.50;99.90
39079;DHT22;24829;49.208;12.080;2023-05-10T12:25:23;14.60;99.90
39079;DHT22;24829;49.208;12.080;2023-05-10T12:27:53;14.60;99.90
39079;DHT22;24829;49.208;12.080;2023-05-10T12:30:21;14.60;99.90
39079;DHT22;24829;49.208;12.080;2023-05-10T12:32:46;14.60;99.90
39079;DHT22;24829;49.208;12.080;2023-05-10T12:35:12;14.60;99.90
39079;DHT22;24829;49.208;12.080;2023-05-10T12:37:37;14.60;99.90
39079;DHT22;24829;49.208;12.080;2023-05-10T12:40:07;14.70;99.90
39079;DHT22;24829;49.208;12.080;2023-05-10T12:42:34;14.80;99.90
39079;DHT22;24829;49.208;12.080;2023-05-10T12:45:01;14.90;99.90
39079;DHT22;24829;49.208;12.080;2023-05-10T12:47:27;14.90;99.90
39079;DHT22;24829;49.208;12.080;2023-05-10T12:49:52;15.00;99.90
39079;DHT22;24829;49.208;12.080;2023-05-10T12:52:18;15.10;99.90
39079;DHT22;24829;49.208;12.080;2023-05-10T12:54:43;15.10;99.90
39079;DHT22;24829;49.208;12.080;2023-05-10T12:57:09;15.20;99.90
39079;DHT22;24829;49.208;12.080;2023-05-10T12:59:34;15.20;99.90
39079;DHT22;24829;49.208;12.080;2023-05-10T13:02:00;15.30;99.90
39079;DHT22;24829;49.208;12.080;2023-05-10T13:04:26;15.30;99.90
39079;DHT22;24829;49.208;12.080;2023-05-10T13:06:52;15.30;99.90
39079;DHT22;24829;49.208;12.080;2023-05-10T13:09:17;15.30;99.90
39079;DHT22;24829;49.208;12.080;2023-05-10T13:11:43;15.30;99.90
39079;DHT22;24829;49.208;12.080;2023-05-10T13:14:08;15.30;99.90
39079;DHT22;24829;49.208;12.080;2023-05-10T13:16:34;15.30;99.90
39079;DHT22;24829;49.208;12.080;2023-05-10T13:19:00;15.20;99.90
39079;DHT22;24829;49.208;12.080;2023-05-10T13:21:25;15.20;99.90
39079;DHT22;24829;49.208;12.080;2023-05-10T13:23:51;15.20;99.90
39079;DHT22;24829;49.208;12.080;2023-05-10T13:26:16;15.20;99.90
39079;DHT22;24829;49.208;12.080;2023-05-10T13:28:42;15.20;99.90
39079;DHT22;24829;49.208;12.080;2023-05-10T13:31:08;15.20;99.90
39079;DHT22;24829;49.208;12.080;2023-05-10T13:33:34;15.30;99.90
39079;DHT22;24829;49.208;12.080;2023-05-10T13:35:59;15.40;99.90
39079;DHT22;24829;49.208;12.080;2023-05-10T13:38:25;15.50;99.90
39079;DHT22;24829;49.208;12.080;2023-05-10T13:40:51;15.50;99.90
39079;DHT22;24829;49.208;12.080;2023-05-10T13:43:18;15.60;99.90
39079;DHT22;24829;49.208;12.080;2023-05-10T13:45:44;15.60;99.90
39079;DHT22;24829;49.208;12.080;2023-05-10T13:48:09;15.70;99.90
39079;DHT22;24829;49.208;12.080;2023-05-10T13:50:35;15.60;99.90
39079;DHT22;24829;49.208;12.080;2023-05-10T13:53:00;15.70;99.90
39079;DHT22;24829;49.208;12.080;2023-05-10T13:55:26;15.70;99.90
39079;DHT22;24829;49.208;12.080;2023-05-10T13:57:51;15.80;99.90
39079;DHT22;24829;49.208;12.080;2023-05-10T14:00:17;15.90;99.90
39079;DHT22;24829;49.208;12.080;2023-05-10T14:02:43;15.90;99.90
39079;DHT22;24829;49.208;12.080;2023-05-10T14:05:08;15.90;99.90
39079;DHT22;24829;49.208;12.080;2023-05-10T14:07:34;15.90;99.90
39079;DHT22;24829;49.208;12.080;2023-05-10T14:10:00;15.90;99.90
39079;DHT22;24829;49.208;12.080;2023-05-10T14:12:26;16.00;99.90
39079;DHT22;24829;49.208;12.080;2023-05-10T14:14:52;15.90;99.90
39079;DHT22;24829;49.208;12.080;2023-05-10T14:17:18;15.90;99.90
39079;DHT22;24829;49.208;12.080;2023-05-10T14:19:43;15.90;99.90
39079;DHT22;24829;49.208;12.080;2023-05-10T14:22:09;15.90;99.90
39079;DHT22;24829;49.208;12.080;2023-05-10T14:24:34;15.80;99.90
39079;DHT22;24829;49.208;12.080;2023-05-10T14:27:00;15.70;99.90
39079;DHT22;24829;49.208;12.080;2023-05-10T14:29:26;15.70;99.90
39079;DHT22;24829;49.208;12.080;2023-05-10T14:31:51;15.70;99.90
39079;DHT22;24829;49.208;12.080;2023-05-10T14:34:17;15.80;99.90
39079;DHT22;24829;49.208;12.080;2023-05-10T14:36:42;15.80;99.90
39079;DHT22;24829;49.208;12.080;2023-05-10T14:39:08;15.70;99.90
39079;DHT22;24829;49.208;12.080;2023-05-10T14:41:35;15.70;99.90
39079;DHT22;24829;49.208;12.080;2023-05-10T14:44:01;15.70;99.90
39079;DHT22;24829;49.208;12.080;2023-05-10T14:46:28;15.70;99.90
39079;DHT22;24829;49.208;12.080;2023-05-10T14:48:55;15.70;99.90
39079;DHT22;24829;49.208;12.080;2023-05-10T14:51:20;15.60;99.90
39079;DHT22;24829;49.208;12.080;2023-05-10T14:53:48;15.40;99.90
39079;DHT22;24829;49.208;12.080;2023-05-10T14:56:14;15.30;99.90
39079;DHT22;24829;49.208;12.080;2023-05-10T14:58:39;15.20;99.90
39079;DHT22;24829;49.208;12.080;2023-05-10T15:01:05;15.20;99.90
39079;DHT22;24829;49.208;12.080;2023-05-10T15:03:30;15.20;99.90
39079;DHT22;24829;49.208;12.080;2023-05-10T15:05:56;15.20;99.90
39079;DHT22;24829;49.208;12.080;2023-05-10T15:08:23;15.20;99.90
39079;DHT22;24829;49.208;12.080;2023-05-10T15:10:50;15.20;99.90
39079;DHT22;24829;49.208;12.080;2023-05-10T15:13:15;15.20;99.90
39079;DHT22;24829;49.208;12.080;2023-05-10T15:15:41;15.20;99.90
39079;DHT22;24829;49.208;12.080;2023-05-10T15:18:11;15.20;99.90
39079;DHT22;24829;49.208;12.080;2023-05-10T15:20:36;15.20;99.90
39079;DHT22;24829;49.208;12.080;2023-05-10T15:23:02;15.20;99.90
39079;DHT22;24829;49.208;12.080;2023-05-10T15:25:28;15.20;99.90
39079;DHT22;24829;49.208;12.080;2023-05-10T15:27:54;15.20;99.90
39079;DHT22;24829;49.208;12.080;2023-05-10T15:30:20;15.20;99.90
39079;DHT22;24829;49.208;12.080;2023-05-10T15:32:45;15.20;99.90
39079;DHT22;24829;49.208;12.080;2023-05-10T15:35:11;15.10;99.90
39079;DHT22;24829;49.208;12.080;2023-05-10T15:37:37;15.10;99.90
39079;DHT22;24829;49.208;12.080;2023-05-10T15:40:03;15.10;99.90
39079;DHT22;24829;49.208;12.080;2023-05-10T15:42:30;15.20;99.90
39079;DHT22;24829;49.208;12.080;2023-05-10T15:44:56;15.20;99.90